Time;durP1;ratioP1;P1;durP2;ratioP2;P2;SDS_P1;SDS_P2;PMS_P1;PMS_P2;Temp;Humidity;BMP_temperature;BMP_pressure;BME280_temperature;BME280_humidity;BME280_pressure;Samples;Min_cycle;Max_cycle;Signal;HPM_P1;HPM_P2
2022/03/09 00:00:06;;;;;;;22.33;12.00;;;5.50;99.90;;;;;;4055246;29;20670;-94
2022/03/09 00:02:07;;;;;;;21.07;12.13;;;5.60;99.90;;;;;;4071023;29;20649;-94
2022/03/09 00:04:08;;;;;;;20.50;11.53;;;5.70;99.90;;;;;;4086883;29;20174;-93
2022/03/09 00:06:09;;;;;;;21.40;11.97;;;5.70;99.90;;;;;;4055327;29;20569;-93
2022/03/09 00:08:10;;;;;;;22.23;11.77;;;5.60;99.90;;;;;;4086393;29;20223;-93
2022/03/09 00:10:10;;;;;;;22.37;12.40;;;5.50;99.90;;;;;;4071063;29;20176;-94
2022/03/09 00:12:11;;;;;;;23.63;11.53;;;5.40;99.90;;;;;;4086914;29;20180;-92
2022/03/09 00:14:12;;;;;;;22.13;12.10;;;5.30;99.90;;;;;;4070882;29;20168;-93
2022/03/09 00:16:13;;;;;;;21.30;10.90;;;5.30;99.90;;;;;;4086853;29;20186;-94
2022/03/09 00:18:15;;;;;;;23.37;11.50;;;5.20;99.90;;;;;;4070935;29;20180;-93
2022/03/09 00:20:16;;;;;;;23.07;11.03;;;5.10;99.90;;;;;;4101806;23;20609;-89
2022/03/09 00:22:19;;;;;;;23.43;12.10;;;5.00;99.90;;;;;;4086100;29;20196;-90
2022/03/09 00:24:20;;;;;;;23.87;13.20;;;4.90;99.90;;;;;;4083876;29;20184;-90
2022/03/09 00:26:20;;;;;;;19.90;11.30;;;5.00;99.90;;;;;;4070653;29;20248;-87
2022/03/09 00:28:21;;;;;;;21.00;11.00;;;5.10;99.90;;;;;;4070822;29;20212;-88
2022/03/09 00:30:22;;;;;;;21.37;11.17;;;5.00;99.90;;;;;;4054953;29;20208;-89
2022/03/09 00:32:23;;;;;;;24.17;11.73;;;5.00;99.90;;;;;;4070610;29;20187;-88
2022/03/09 00:34:24;;;;;;;17.27;10.30;;;5.10;99.90;;;;;;4070449;29;20293;-90
2022/03/09 00:36:24;;;;;;;22.30;10.50;;;5.10;99.90;;;;;;4070478;29;20185;-87
2022/03/09 00:38:25;;;;;;;21.57;11.20;;;5.20;99.90;;;;;;4054828;29;20218;-88
2022/03/09 00:40:26;;;;;;;21.60;11.47;;;5.40;99.90;;;;;;4054767;29;20185;-90
2022/03/09 00:42:27;;;;;;;19.83;11.00;;;5.40;99.90;;;;;;4054560;29;20185;-87
2022/03/09 00:44:28;;;;;;;20.73;10.60;;;5.50;99.90;;;;;;4054530;29;20685;-90
2022/03/09 00:46:30;;;;;;;20.43;10.37;;;5.40;99.90;;;;;;4054711;29;20169;-90
2022/03/09 00:48:31;;;;;;;20.07;11.27;;;5.30;99.90;;;;;;4054714;29;20276;-87
2022/03/09 00:50:32;;;;;;;23.67;11.30;;;5.20;99.90;;;;;;4070228;29;20191;-88
2022/03/09 00:52:32;;;;;;;20.40;10.87;;;5.10;99.90;;;;;;4054636;29;20218;-87
2022/03/09 00:54:34;;;;;;;21.13;11.37;;;5.10;99.90;;;;;;4054422;29;20189;-89
2022/03/09 00:56:34;;;;;;;19.60;11.00;;;5.00;99.90;;;;;;4054481;29;20234;-89
2022/03/09 00:58:35;;;;;;;21.60;11.07;;;5.00;99.90;;;;;;4070314;29;20176;-89
2022/03/09 01:00:36;;;;;;;21.10;11.30;;;5.10;99.90;;;;;;4070319;29;20581;-90
2022/03/09 01:02:41;;;;;;;20.57;11.27;;;5.20;99.90;;;;;;4070213;29;20689;-89
2022/03/09 01:04:42;;;;;;;20.43;11.40;;;5.30;99.90;;;;;;4054507;29;20209;-87
2022/03/09 01:06:43;;;;;;;26.87;11.47;;;5.50;99.90;;;;;;4054425;29;20623;-89
2022/03/09 01:08:44;;;;;;;23.77;11.37;;;5.40;99.90;;;;;;4069254;29;20244;-90
2022/03/09 01:10:45;;;;;;;21.67;11.30;;;5.30;99.90;;;;;;4070005;29;20176;-88
2022/03/09 01:12:46;;;;;;;20.50;11.30;;;5.20;99.90;;;;;;4054287;29;20227;-87
2022/03/09 01:14:46;;;;;;;19.47;11.50;;;5.10;99.90;;;;;;4054136;29;20201;-87
2022/03/09 01:16:47;;;;;;;22.10;11.43;;;5.30;99.90;;;;;;4069984;29;20208;-89
2022/03/09 01:18:48;;;;;;;22.83;11.43;;;5.20;99.90;;;;;;4054394;29;20177;-90
2022/03/09 01:20:49;;;;;;;26.43;11.97;;;5.30;99.90;;;;;;4054137;29;20225;-90
2022/03/09 01:22:49;;;;;;;21.67;11.40;;;5.10;99.90;;;;;;4054186;29;20177;-89
2022/03/09 01:24:50;;;;;;;21.50;11.00;;;5.10;99.90;;;;;;4069619;29;20207;-90
2022/03/09 01:26:51;;;;;;;23.47;11.93;;;5.10;99.90;;;;;;4069668;29;20639;-88
2022/03/09 01:28:52;;;;;;;22.93;11.17;;;5.10;99.90;;;;;;4053950;29;20221;-89
2022/03/09 01:30:53;;;;;;;26.10;11.87;;;5.10;99.90;;;;;;4053906;29;20177;-90
2022/03/09 01:32:54;;;;;;;22.60;12.07;;;5.20;99.90;;;;;;4069402;29;20187;-90
2022/03/09 01:34:55;;;;;;;24.37;11.60;;;5.20;99.90;;;;;;4053859;29;20208;-90
2022/03/09 01:36:55;;;;;;;26.60;12.07;;;5.20;99.90;;;;;;4069467;29;20653;-89
2022/03/09 01:38:56;;;;;;;24.50;12.33;;;5.10;99.90;;;;;;4069304;29;20255;-89
2022/03/09 01:40:57;;;;;;;20.57;11.70;;;5.20;99.90;;;;;;4053634;29;20184;-89
2022/03/09 01:42:58;;;;;;;20.13;11.40;;;5.20;99.90;;;;;;4069564;29;20244;-88
2022/03/09 01:45:07;;;;;;;23.17;11.37;;;5.30;99.90;;;;;;4053771;29;20256;-90
2022/03/09 01:47:08;;;;;;;23.13;11.73;;;5.30;99.90;;;;;;4053718;29;20574;-90
2022/03/09 01:49:09;;;;;;;22.70;11.30;;;5.20;99.90;;;;;;4069591;29;20219;-90
2022/03/09 01:51:10;;;;;;;19.70;10.97;;;5.10;99.90;;;;;;4069312;29;20259;-90
2022/03/09 01:53:11;;;;;;;24.67;11.40;;;5.20;99.90;;;;;;4053600;29;20176;-90
2022/03/09 01:55:12;;;;;;;23.27;11.23;;;5.20;99.90;;;;;;4069249;29;20187;-87
2022/03/09 01:57:13;;;;;;;23.03;12.33;;;5.10;99.90;;;;;;4068856;29;20187;-90
2022/03/09 01:59:15;;;;;;;20.47;11.77;;;5.10;99.90;;;;;;4069106;29;20176;-91
2022/03/09 02:01:15;;;;;;;22.33;11.50;;;5.20;99.90;;;;;;4068965;29;20184;-87
2022/03/09 02:03:16;;;;;;;22.67;11.13;;;5.30;99.90;;;;;;4053394;29;20542;-89
2022/03/09 02:05:17;;;;;;;22.57;11.90;;;5.40;99.90;;;;;;4053356;29;20559;-90
2022/03/09 02:07:18;;;;;;;26.50;11.30;;;5.40;99.90;;;;;;4069083;29;20286;-90
2022/03/09 02:11:38;;;;;;;28.03;11.33;;;5.30;99.90;;;;;;4084686;29;20526;-88
2022/03/09 02:13:39;;;;;;;21.03;11.17;;;5.30;99.90;;;;;;4069393;29;20279;-87
2022/03/09 02:15:43;;;;;;;22.73;11.73;;;5.20;99.90;;;;;;4053477;29;20193;-89
2022/03/09 02:17:44;;;;;;;23.83;11.80;;;5.10;99.90;;;;;;4068828;29;20172;-90
2022/03/09 02:19:48;;;;;;;25.23;12.03;;;5.10;99.90;;;;;;4068738;29;20236;-87
2022/03/09 02:21:55;;;;;;;22.87;11.73;;;5.00;99.90;;;;;;4068419;29;20188;-87
2022/03/09 02:23:55;;;;;;;24.47;12.40;;;4.90;99.90;;;;;;4053377;29;20638;-90
2022/03/09 02:25:56;;;;;;;24.33;12.23;;;4.90;99.90;;;;;;4068689;29;20295;-86
2022/03/09 02:28:01;;;;;;;24.10;12.63;;;4.80;99.90;;;;;;4069062;29;20243;-87
2022/03/09 02:30:03;;;;;;;27.07;12.33;;;4.80;99.90;;;;;;4053390;29;20276;-87
2022/03/09 02:32:05;;;;;;;24.00;11.80;;;4.80;99.90;;;;;;4068962;29;20172;-87
2022/03/09 02:34:05;;;;;;;22.67;12.20;;;4.80;99.90;;;;;;4068774;29;20183;-90
2022/03/09 02:36:06;;;;;;;28.53;12.03;;;4.80;99.90;;;;;;4052924;29;20165;-88
2022/03/09 02:38:06;;;;;;;22.63;12.10;;;4.80;99.90;;;;;;4053066;29;20189;-87
2022/03/09 02:40:10;;;;;;;19.70;11.03;;;4.90;99.90;;;;;;4052917;29;20252;-88
2022/03/09 02:42:12;;;;;;;24.23;11.20;;;4.90;99.90;;;;;;4052897;29;20558;-90
2022/03/09 02:44:13;;;;;;;24.53;11.50;;;5.10;99.90;;;;;;4068845;29;20176;-90
2022/03/09 02:46:13;;;;;;;28.10;11.40;;;5.00;99.90;;;;;;4068689;29;20232;-87
2022/03/09 02:48:14;;;;;;;22.20;11.23;;;4.90;99.90;;;;;;4052730;29;20216;-90
2022/03/09 02:50:16;;;;;;;21.17;11.13;;;4.80;99.90;;;;;;4068621;29;20176;-89
2022/03/09 02:52:16;;;;;;;27.47;11.83;;;4.80;99.90;;;;;;4052972;29;20601;-89
2022/03/09 02:54:18;;;;;;;21.37;10.77;;;4.70;99.90;;;;;;4068404;29;20184;-90
2022/03/09 02:56:18;;;;;;;21.83;11.20;;;4.70;99.90;;;;;;4053038;29;20203;-90
2022/03/09 02:58:19;;;;;;;23.30;11.10;;;4.70;99.90;;;;;;4068451;29;20184;-91
2022/03/09 03:00:20;;;;;;;24.73;11.57;;;4.60;99.90;;;;;;4052766;29;20206;-89
2022/03/09 03:02:20;;;;;;;23.03;11.27;;;4.60;99.90;;;;;;4068521;29;20228;-90
2022/03/09 03:04:21;;;;;;;20.23;10.67;;;4.80;99.90;;;;;;4052876;29;20169;-90
2022/03/09 03:06:23;;;;;;;21.00;10.77;;;4.90;99.90;;;;;;4068516;29;20192;-90
2022/03/09 03:08:24;;;;;;;17.33;9.83;;;5.00;99.90;;;;;;4068749;29;20208;-89
2022/03/09 03:10:25;;;;;;;23.13;12.37;;;5.10;99.90;;;;;;4068542;29;20323;-90
2022/03/09 03:12:25;;;;;;;21.97;10.77;;;5.10;99.90;;;;;;4052559;29;20205;-90
2022/03/09 03:14:26;;;;;;;26.30;11.07;;;5.10;99.90;;;;;;4052867;29;20745;-89
2022/03/09 03:16:27;;;;;;;21.13;11.40;;;5.00;99.90;;;;;;4068518;29;20231;-90
2022/03/09 03:18:28;;;;;;;21.83;11.33;;;4.90;99.90;;;;;;4068382;29;20218;-89
2022/03/09 03:20:29;;;;;;;19.50;10.60;;;4.80;99.90;;;;;;4052744;29;20661;-91
2022/03/09 03:22:29;;;;;;;18.20;10.17;;;4.70;99.90;;;;;;4068102;29;20660;-88
2022/03/09 03:24:30;;;;;;;24.13;11.07;;;4.70;99.90;;;;;;4052513;29;20197;-89
2022/03/09 03:26:31;;;;;;;22.77;10.23;;;4.80;99.90;;;;;;4052970;29;20684;-87
2022/03/09 03:28:32;;;;;;;21.07;10.30;;;4.80;99.90;;;;;;4068555;29;20215;-90
2022/03/09 03:30:33;;;;;;;20.10;10.30;;;4.80;99.90;;;;;;4068776;29;20172;-90
2022/03/09 03:32:34;;;;;;;19.47;10.80;;;4.70;99.90;;;;;;4054669;29;20253;-89
2022/03/09 03:34:34;;;;;;;24.33;10.40;;;4.60;99.90;;;;;;4055783;29;20658;-90
2022/03/09 03:36:35;;;;;;;22.90;10.80;;;4.50;99.90;;;;;;4071081;29;20187;-90
2022/03/09 03:38:36;;;;;;;17.53;10.70;;;4.50;99.90;;;;;;4055786;29;20173;-90
2022/03/09 03:40:37;;;;;;;20.87;10.40;;;4.40;99.90;;;;;;4055610;29;20173;-90
2022/03/09 03:42:38;;;;;;;19.07;9.70;;;4.40;99.90;;;;;;4055653;29;20549;-91
2022/03/09 03:44:39;;;;;;;21.33;11.13;;;4.40;99.90;;;;;;4071105;29;20689;-87
2022/03/09 03:46:41;;;;;;;22.60;10.47;;;4.40;99.90;;;;;;4055548;29;20188;-90
2022/03/09 03:48:41;;;;;;;20.23;10.27;;;4.50;99.90;;;;;;4071093;29;20176;-87
2022/03/09 03:50:42;;;;;;;20.80;11.10;;;4.50;99.90;;;;;;4071403;29;20172;-87
2022/03/09 03:52:43;;;;;;;21.73;10.00;;;4.50;99.90;;;;;;4055428;29;20180;-90
2022/03/09 03:54:43;;;;;;;21.73;10.67;;;4.50;99.90;;;;;;4055168;29;20666;-89
2022/03/09 03:56:46;;;;;;;21.90;9.90;;;4.40;99.90;;;;;;4070894;29;20221;-89
2022/03/09 03:58:47;;;;;;;19.33;10.87;;;4.40;99.90;;;;;;4055239;29;20669;-87
2022/03/09 04:00:47;;;;;;;19.93;10.53;;;4.40;99.90;;;;;;4070852;29;20251;-90
2022/03/09 04:02:48;;;;;;;19.73;10.30;;;4.40;99.90;;;;;;4055382;29;20209;-90
2022/03/09 04:04:50;;;;;;;19.47;10.20;;;4.40;99.90;;;;;;4070729;29;20241;-92
2022/03/09 04:06:51;;;;;;;19.27;10.30;;;4.40;99.90;;;;;;4055147;29;20249;-90
2022/03/09 04:08:51;;;;;;;19.80;10.53;;;4.50;99.90;;;;;;4071988;29;20171;-89
2022/03/09 04:10:52;;;;;;;18.70;10.53;;;4.40;99.90;;;;;;4070936;29;20226;-91
2022/03/09 04:12:53;;;;;;;23.50;10.40;;;4.30;99.90;;;;;;4055371;29;20173;-87
2022/03/09 04:14:54;;;;;;;20.80;10.20;;;4.30;99.90;;;;;;4055228;29;20204;-90
2022/03/09 04:16:54;;;;;;;19.50;10.30;;;4.20;99.90;;;;;;4054955;29;20184;-89
2022/03/09 04:18:56;;;;;;;23.33;10.67;;;4.30;99.90;;;;;;4070767;29;20176;-90
2022/03/09 04:20:56;;;;;;;18.57;10.73;;;4.40;99.90;;;;;;4054855;29;20276;-91
2022/03/09 04:22:57;;;;;;;21.43;10.27;;;4.50;99.90;;;;;;4070579;29;20633;-90
2022/03/09 04:24:58;;;;;;;19.50;10.57;;;4.40;99.90;;;;;;4054735;29;20201;-91
2022/03/09 04:26:59;;;;;;;20.10;10.70;;;4.20;99.90;;;;;;4070754;29;20216;-90
2022/03/09 04:29:00;;;;;;;23.37;10.30;;;4.10;99.90;;;;;;4070805;29;20532;-87
2022/03/09 04:31:01;;;;;;;22.93;11.40;;;3.90;99.90;;;;;;4070823;29;20732;-90
2022/03/09 04:33:02;;;;;;;18.30;9.73;;;3.80;99.90;;;;;;4070521;29;20173;-91
2022/03/09 04:35:05;;;;;;;18.00;10.23;;;4.00;99.90;;;;;;4055005;29;20674;-88
2022/03/09 04:37:06;;;;;;;21.83;11.07;;;4.30;99.90;;;;;;4055049;29;20205;-88
2022/03/09 04:39:06;;;;;;;22.43;10.87;;;4.50;99.90;;;;;;4054767;29;20185;-90
2022/03/09 04:41:07;;;;;;;21.57;10.90;;;4.60;99.90;;;;;;4054703;29;20184;-90
2022/03/09 04:43:08;;;;;;;24.27;11.23;;;4.70;99.90;;;;;;4069718;29;20176;-88
2022/03/09 04:45:10;;;;;;;21.93;11.33;;;4.80;99.90;;;;;;4069934;29;20192;-89
2022/03/09 04:47:10;;;;;;;23.37;10.97;;;4.80;99.90;;;;;;4054612;29;20790;-90
2022/03/09 04:49:11;;;;;;;21.50;11.00;;;4.80;99.90;;;;;;4070286;29;20176;-88
2022/03/09 04:51:12;;;;;;;20.73;10.80;;;4.80;99.90;;;;;;4070159;29;20188;-87
2022/03/09 04:53:13;;;;;;;29.30;10.93;;;4.80;99.90;;;;;;4070185;29;20688;-90
2022/03/09 04:55:13;;;;;;;21.67;11.67;;;4.80;99.90;;;;;;4069986;29;20204;-90
2022/03/09 04:57:15;;;;;;;26.33;11.30;;;4.70;99.90;;;;;;4070108;29;20724;-90
2022/03/09 04:59:17;;;;;;;27.20;11.17;;;4.70;99.90;;;;;;4070104;29;20173;-89
2022/03/09 05:01:17;;;;;;;23.57;11.07;;;4.60;99.90;;;;;;4070007;29;20192;-87
2022/03/09 05:03:18;;;;;;;24.07;10.80;;;4.80;99.90;;;;;;4054405;29;20188;-90
2022/03/09 05:05:19;;;;;;;21.40;11.80;;;4.80;99.90;;;;;;4069944;29;20283;-89
2022/03/09 05:07:19;;;;;;;22.93;11.20;;;4.60;99.90;;;;;;4070033;29;20268;-90
2022/03/09 05:09:20;;;;;;;24.53;11.13;;;4.60;99.90;;;;;;4054295;29;20626;-90
2022/03/09 05:11:21;;;;;;;23.93;10.70;;;4.60;99.90;;;;;;4054369;29;20193;-89
2022/03/09 05:13:22;;;;;;;22.63;11.27;;;4.60;99.90;;;;;;4054326;29;20181;-87
2022/03/09 05:15:23;;;;;;;24.67;11.13;;;4.60;99.90;;;;;;4069678;29;20204;-89
2022/03/09 05:17:24;;;;;;;22.87;10.80;;;4.60;99.90;;;;;;4054400;29;20205;-89
2022/03/09 05:19:24;;;;;;;22.90;11.00;;;4.60;99.90;;;;;;4053905;29;20177;-90
2022/03/09 05:21:25;;;;;;;21.47;10.90;;;4.70;99.90;;;;;;4069543;29;20199;-90
2022/03/09 05:23:26;;;;;;;20.47;11.27;;;4.70;99.90;;;;;;4069845;29;20253;-91
2022/03/09 05:25:28;;;;;;;22.30;10.70;;;4.70;99.90;;;;;;4054060;29;20316;-90
2022/03/09 05:27:29;;;;;;;23.37;11.23;;;4.70;99.90;;;;;;4069690;29;20307;-88
2022/03/09 05:29:30;;;;;;;20.43;10.57;;;4.80;99.90;;;;;;4069785;29;20203;-90
2022/03/09 05:31:31;;;;;;;25.00;11.60;;;4.70;99.90;;;;;;4054321;29;20185;-89
2022/03/09 05:33:31;;;;;;;25.20;11.00;;;4.80;99.90;;;;;;4054247;29;20178;-89
2022/03/09 05:35:32;;;;;;;24.27;10.20;;;4.80;99.90;;;;;;4069558;29;20220;-86
2022/03/09 05:37:43;;;;;;;18.63;10.70;;;4.80;99.90;;;;;;4054104;29;20169;-90
2022/03/09 05:39:44;;;;;;;27.00;11.73;;;4.90;99.90;;;;;;4054083;29;20601;-89
2022/03/09 05:41:45;;;;;;;20.57;10.17;;;4.80;99.90;;;;;;4069695;29;20177;-90
2022/03/09 05:43:45;;;;;;;24.67;11.33;;;4.80;99.90;;;;;;4053944;29;20179;-90
2022/03/09 05:45:46;;;;;;;24.97;10.67;;;4.80;99.90;;;;;;4053707;29;20201;-87
2022/03/09 05:47:47;;;;;;;20.70;10.83;;;4.60;99.90;;;;;;4053570;29;20725;-90
2022/03/09 05:49:48;;;;;;;22.83;11.33;;;4.60;99.90;;;;;;4053814;29;20268;-87
2022/03/09 05:51:49;;;;;;;24.80;11.43;;;4.70;99.90;;;;;;4069492;29;20184;-90
2022/03/09 05:53:50;;;;;;;23.63;11.40;;;4.60;99.90;;;;;;4053740;29;20181;-89
2022/03/09 05:55:50;;;;;;;20.30;10.83;;;4.60;99.90;;;;;;4068674;29;20299;-89
2022/03/09 05:57:51;;;;;;;22.27;11.40;;;4.60;99.90;;;;;;4053686;29;20181;-89
2022/03/09 05:59:52;;;;;;;24.83;11.00;;;4.70;99.90;;;;;;4069221;29;20271;-87
2022/03/09 06:01:53;;;;;;;20.80;10.90;;;4.70;99.90;;;;;;4069151;29;20179;-89
2022/03/09 06:03:54;;;;;;;26.37;11.63;;;4.80;99.90;;;;;;4053668;29;20180;-90
2022/03/09 06:05:55;;;;;;;24.83;10.43;;;4.80;99.90;;;;;;4069238;29;20719;-87
2022/03/09 06:07:55;;;;;;;21.90;10.63;;;4.60;99.90;;;;;;4053417;29;20225;-89
2022/03/09 06:09:56;;;;;;;20.30;10.73;;;4.40;99.90;;;;;;4068707;29;20256;-89
2022/03/09 06:11:57;;;;;;;20.73;10.00;;;4.30;99.90;;;;;;4053294;29;20189;-88
2022/03/09 06:13:58;;;;;;;21.97;10.73;;;4.30;99.90;;;;;;4053366;29;20260;-87
2022/03/09 06:15:58;;;;;;;25.63;11.40;;;4.10;99.90;;;;;;4053139;29;20212;-89
2022/03/09 06:18:00;;;;;;;25.67;10.10;;;4.00;99.90;;;;;;4053383;29;20199;-89
2022/03/09 06:22:14;;;;;;;26.30;10.80;;;4.10;99.90;;;;;;4099850;28;20215;-93
2022/03/09 06:24:17;;;;;;;24.83;10.00;;;4.20;99.90;;;;;;4098891;28;20632;-93
2022/03/09 06:26:18;;;;;;;26.90;10.87;;;4.00;99.90;;;;;;4069053;29;20172;-93
2022/03/09 06:28:19;;;;;;;30.00;11.57;;;4.20;99.90;;;;;;4084524;29;20262;-92
2022/03/09 06:30:20;;;;;;;23.97;12.00;;;4.30;99.90;;;;;;4084685;29;20641;-91
2022/03/09 06:32:20;;;;;;;23.30;10.73;;;4.30;99.90;;;;;;4084503;29;20270;-93
2022/03/09 06:34:21;;;;;;;28.40;11.33;;;4.50;99.90;;;;;;4068898;29;20187;-93
2022/03/09 06:36:23;;;;;;;26.10;11.57;;;4.60;99.90;;;;;;4068790;29;20293;-92
2022/03/09 06:38:23;;;;;;;21.23;10.70;;;4.60;99.90;;;;;;4069054;29;20605;-93
2022/03/09 06:40:25;;;;;;;24.83;11.03;;;4.50;99.90;;;;;;4084634;29;20184;-92
2022/03/09 06:42:26;;;;;;;17.87;10.23;;;4.40;99.90;;;;;;4069009;29;20255;-91
2022/03/09 06:44:27;;;;;;;23.30;11.33;;;4.30;99.90;;;;;;4068766;29;20214;-94
2022/03/09 06:46:28;;;;;;;26.27;11.20;;;4.10;99.90;;;;;;4084559;29;20188;-92
2022/03/09 06:48:28;;;;;;;25.87;11.10;;;4.20;99.90;;;;;;4068637;29;20306;-93
2022/03/09 06:50:29;;;;;;;21.23;11.10;;;4.40;99.90;;;;;;4084167;29;20207;-92
2022/03/09 06:52:30;;;;;;;23.57;10.80;;;4.70;99.90;;;;;;4068776;29;20207;-93
2022/03/09 06:54:31;;;;;;;22.47;10.87;;;5.40;99.90;;;;;;4084348;29;20191;-92
2022/03/09 06:56:31;;;;;;;24.97;11.67;;;6.30;99.90;;;;;;4068450;29;20183;-91
2022/03/09 06:58:32;;;;;;;26.53;11.80;;;7.40;99.90;;;;;;4084259;29;20207;-91
2022/03/09 07:00:33;;;;;;;22.77;10.70;;;8.20;99.90;;;;;;4068435;29;20192;-94
2022/03/09 07:02:34;;;;;;;23.73;11.93;;;8.30;99.90;;;;;;4068614;29;20717;-93
2022/03/09 07:04:34;;;;;;;24.20;11.77;;;8.60;99.90;;;;;;4084343;29;20684;-92
2022/03/09 07:06:35;;;;;;;26.80;11.20;;;8.70;99.90;;;;;;4068880;29;20179;-92
2022/03/09 07:08:36;;;;;;;27.30;12.87;;;9.20;99.90;;;;;;4087466;29;20211;-92
2022/03/09 07:10:37;;;;;;;21.77;11.80;;;9.20;99.90;;;;;;4071717;29;20173;-93
2022/03/09 07:12:38;;;;;;;27.87;12.07;;;10.20;99.90;;;;;;4103226;28;20175;-93
2022/03/09 07:14:39;;;;;;;24.13;11.63;;;10.70;99.90;;;;;;4071853;29;20588;-94
2022/03/09 07:16:40;;;;;;;27.17;12.87;;;10.80;99.90;;;;;;4087523;29;20596;-94
2022/03/09 07:18:41;;;;;;;24.77;12.63;;;11.40;99.90;;;;;;4071419;29;20255;-94
2022/03/09 07:20:42;;;;;;;29.23;12.73;;;11.30;99.90;;;;;;4087167;29;20258;-94
2022/03/09 07:22:43;;;;;;;25.98;11.75;;;11.60;99.90;;;;;;4071710;29;20187;-92
2022/03/09 07:24:44;;;;;;;26.33;12.90;;;11.60;99.90;;;;;;4087329;29;20191;-93
2022/03/09 07:26:45;;;;;;;25.27;12.15;;;11.70;99.90;;;;;;4071630;29;20178;-95
2022/03/09 07:28:46;;;;;;;23.77;12.48;;;11.60;99.90;;;;;;4071279;29;20191;-92
2022/03/09 07:30:46;;;;;;;26.38;12.50;;;12.00;99.90;;;;;;4071471;29;20204;-94
2022/03/09 07:32:47;;;;;;;25.33;13.32;;;11.70;99.90;;;;;;4071324;29;20283;-94
2022/03/09 07:34:48;;;;;;;21.27;12.40;;;11.70;99.90;;;;;;4071201;29;20211;-92
2022/03/09 07:36:50;;;;;;;32.67;13.73;;;11.90;99.90;;;;;;4071628;29;20180;-93
2022/03/09 07:38:50;;;;;;;27.20;13.27;;;12.10;99.90;;;;;;4071534;29;20176;-94
2022/03/09 07:40:51;;;;;;;22.27;13.55;;;12.00;99.90;;;;;;4086918;29;20255;-92
2022/03/09 07:42:52;;;;;;;29.05;14.35;;;11.70;99.90;;;;;;4071556;29;20172;-92
2022/03/09 07:44:53;;;;;;;28.95;13.68;;;12.00;99.90;;;;;;4087066;29;20207;-94
2022/03/09 07:46:54;;;;;;;30.52;13.00;;;11.80;99.90;;;;;;4070947;29;20235;-92
2022/03/09 07:48:55;;;;;;;25.95;13.18;;;12.20;99.90;;;;;;4071355;29;20189;-92
2022/03/09 07:50:56;;;;;;;26.63;14.13;;;13.20;99.90;;;;;;4086917;29;20167;-93
2022/03/09 07:52:57;;;;;;;25.10;13.38;;;13.60;99.90;;;;;;4086887;29;20215;-93
2022/03/09 07:54:57;;;;;;;24.17;13.50;;;13.90;99.90;;;;;;4071080;29;20196;-92
2022/03/09 07:56:59;;;;;;;23.92;13.25;;;14.20;99.90;;;;;;4087482;29;20187;-95
2022/03/09 07:58:59;;;;;;;28.25;14.18;;;14.40;99.90;;;;;;4070851;29;20288;-93
2022/03/09 08:01:00;;;;;;;28.08;14.75;;;14.80;99.90;;;;;;4070512;29;20210;-92
2022/03/09 08:03:01;;;;;;;26.15;14.15;;;14.50;99.90;;;;;;4071054;29;20586;-94
2022/03/09 08:05:03;;;;;;;29.25;13.50;;;14.20;99.90;;;;;;4086459;29;20235;-92
2022/03/09 08:07:04;;;;;;;26.88;14.25;;;14.60;99.90;;;;;;4086557;29;20207;-93
2022/03/09 08:09:05;;;;;;;28.75;14.48;;;14.60;99.90;;;;;;4086432;29;20664;-92
2022/03/09 08:11:06;;;;;;;24.83;14.70;;;14.50;99.90;;;;;;4070699;29;20176;-92
2022/03/09 08:13:06;;;;;;;34.55;15.65;;;15.30;99.90;;;;;;4086423;29;20219;-93
2022/03/09 08:15:07;;;;;;;28.48;15.68;;;15.50;99.90;;;;;;4070495;29;20191;-92
2022/03/09 08:17:08;;;;;;;30.13;15.20;;;15.30;99.90;;;;;;4086522;29;20196;-93
2022/03/09 08:19:09;;;;;;;31.85;15.77;;;15.80;99.90;;;;;;4070878;29;20256;-92
2022/03/09 08:21:09;;;;;;;29.75;15.05;;;16.20;99.90;;;;;;4070882;29;20200;-93
2022/03/09 08:23:10;;;;;;;31.27;15.35;;;16.10;99.90;;;;;;4070906;29;20228;-93
2022/03/09 08:25:11;;;;;;;32.20;15.60;;;16.40;99.90;;;;;;4070937;29;20580;-92
2022/03/09 08:27:12;;;;;;;34.05;16.15;;;16.30;99.90;;;;;;4070775;29;20179;-93
2022/03/09 08:29:13;;;;;;;29.08;15.40;;;15.20;99.90;;;;;;4086237;29;20580;-93
2022/03/09 08:31:14;;;;;;;28.00;15.68;;;15.30;99.90;;;;;;4070611;29;20176;-92
2022/03/09 08:33:15;;;;;;;29.67;15.93;;;14.90;99.90;;;;;;4070538;29;20184;-93
2022/03/09 08:35:15;;;;;;;32.75;16.52;;;14.60;99.90;;;;;;4070420;29;20278;-92
2022/03/09 08:37:16;;;;;;;32.03;17.13;;;15.30;99.90;;;;;;4085990;29;20211;-93
2022/03/09 08:39:17;;;;;;;36.08;16.08;;;15.80;99.90;;;;;;4069993;29;20240;-92
2022/03/09 08:41:18;;;;;;;29.35;16.17;;;16.30;99.90;;;;;;4085896;29;20179;-94
2022/03/09 08:43:19;;;;;;;34.88;17.52;;;16.40;99.90;;;;;;4070577;29;20307;-92
2022/03/09 08:45:19;;;;;;;27.65;15.25;;;16.10;99.90;;;;;;4101921;28;20311;-93
2022/03/09 08:47:20;;;;;;;37.63;17.73;;;15.70;99.90;;;;;;4086221;29;20168;-93
2022/03/09 08:49:21;;;;;;;35.45;16.20;;;15.60;99.90;;;;;;4072132;29;20211;-93
2022/03/09 08:51:22;;;;;;;30.90;16.80;;;15.50;99.90;;;;;;4085737;29;20714;-93
2022/03/09 08:53:23;;;;;;;31.45;17.13;;;15.60;99.90;;;;;;4085778;29;20183;-93
2022/03/09 08:55:24;;;;;;;32.00;16.67;;;15.70;99.90;;;;;;4085649;29;20180;-93
2022/03/09 08:57:25;;;;;;;35.13;17.48;;;15.50;99.90;;;;;;4086028;29;20715;-93
2022/03/09 08:59:26;;;;;;;37.47;16.90;;;15.30;99.90;;;;;;4070360;29;20172;-94
2022/03/09 09:01:27;;;;;;;38.47;17.92;;;14.40;99.90;;;;;;4070453;29;20180;-92
2022/03/09 09:03:27;;;;;;;30.10;17.50;;;14.70;99.90;;;;;;4085839;29;20167;-92
2022/03/09 09:05:28;;;;;;;33.38;18.33;;;14.60;99.90;;;;;;4085829;29;20334;-92
2022/03/09 09:07:29;;;;;;;33.25;17.33;;;14.60;99.90;;;;;;4070011;29;20204;-92
2022/03/09 09:09:30;;;;;;;40.40;19.23;;;14.90;99.90;;;;;;4069859;29;20732;-91
2022/03/09 09:11:30;;;;;;;32.22;17.65;;;15.10;99.90;;;;;;4070004;29;20657;-93
2022/03/09 09:13:31;;;;;;;34.30;18.20;;;15.20;99.90;;;;;;4085518;29;20187;-92
2022/03/09 09:15:32;;;;;;;31.67;16.77;;;15.70;99.90;;;;;;4085436;29;20195;-93
2022/03/09 09:17:33;;;;;;;33.13;17.88;;;15.00;99.90;;;;;;4069901;29;20220;-92
2022/03/09 09:19:35;;;;;;;30.20;17.67;;;14.80;99.90;;;;;;4069552;29;20165;-92
2022/03/09 09:21:35;;;;;;;31.58;17.65;;;14.50;99.90;;;;;;4085409;29;20195;-93
2022/03/09 09:23:38;;;;;;;37.28;18.00;;;14.70;99.90;;;;;;4069746;29;20604;-92
2022/03/09 09:25:39;;;;;;;34.72;18.33;;;14.80;99.90;;;;;;4069492;29;20629;-92
2022/03/09 09:27:40;;;;;;;33.88;17.65;;;15.10;99.90;;;;;;4085370;29;20171;-94
2022/03/09 09:29:40;;;;;;;37.00;18.73;;;15.30;99.90;;;;;;4084833;29;20184;-92
2022/03/09 09:31:41;;;;;;;41.40;19.42;;;15.70;99.90;;;;;;4069738;29;20601;-94
2022/03/09 09:33:42;;;;;;;36.17;18.90;;;16.30;99.90;;;;;;4100886;28;20198;-92
2022/03/09 09:35:43;;;;;;;36.63;19.80;;;16.60;99.90;;;;;;4069327;29;20236;-92
2022/03/09 09:37:45;;;;;;;40.03;19.20;;;16.50;99.90;;;;;;4069604;29;20298;-94
2022/03/09 09:39:45;;;;;;;31.08;18.90;;;16.60;99.90;;;;;;4085186;29;20203;-96
2022/03/09 09:41:49;;;;;;;35.83;19.55;;;16.70;99.90;;;;;;4085250;29;20679;-92
2022/03/09 09:43:50;;;;;;;38.40;19.05;;;16.30;99.90;;;;;;4069643;29;20234;-93
2022/03/09 09:45:52;;;;;;;35.80;19.15;;;16.30;99.90;;;;;;4069772;29;20204;-92
2022/03/09 09:47:52;;;;;;;38.28;19.50;;;16.50;99.90;;;;;;4069681;29;20179;-93
2022/03/09 09:49:55;;;;;;;37.25;20.48;;;16.20;99.90;;;;;;4085175;29;20266;-93
2022/03/09 09:51:56;;;;;;;39.67;19.05;;;16.70;99.90;;;;;;4069446;29;20534;-93
2022/03/09 09:53:58;;;;;;;36.13;19.58;;;16.70;99.90;;;;;;4069466;29;20180;-93
2022/03/09 09:55:59;;;;;;;33.13;19.55;;;16.90;99.90;;;;;;4084816;29;20286;-92
2022/03/09 09:58:01;;;;;;;33.55;18.83;;;16.80;99.90;;;;;;4069229;29;20219;-92
2022/03/09 10:00:04;;;;;;;36.38;19.85;;;16.50;99.90;;;;;;4069079;29;20214;-92
2022/03/09 10:02:13;;;;;;;35.38;19.35;;;16.70;99.90;;;;;;4084979;29;20190;-93
2022/03/09 10:04:13;;;;;;;42.90;20.25;;;16.40;99.90;;;;;;4069195;29;20168;-93
2022/03/09 10:06:14;;;;;;;36.60;20.08;;;16.00;99.90;;;;;;4069373;29;20187;-92
2022/03/09 10:08:18;;;;;;;34.63;20.40;;;15.60;99.90;;;;;;4085131;29;20209;-93
2022/03/09 10:10:18;;;;;;;40.92;20.48;;;15.20;99.90;;;;;;4069248;29;20641;-93
2022/03/09 10:12:28;;;;;;;37.00;19.67;;;15.10;99.90;;;;;;4069030;29;20168;-92
2022/03/09 10:14:47;;;;;;;36.22;20.15;;;14.60;99.90;;;;;;4068917;29;20203;-92
2022/03/09 10:17:05;;;;;;;39.25;20.50;;;14.60;99.90;;;;;;4069047;29;20183;-92
2022/03/09 10:19:06;;;;;;;41.35;20.20;;;14.20;99.90;;;;;;4084885;29;20190;-92
2022/03/09 10:21:18;;;;;;;36.35;19.25;;;14.10;99.90;;;;;;4069425;29;20192;-92
2022/03/09 10:23:21;;;;;;;41.47;20.25;;;14.30;99.90;;;;;;4084863;29;20187;-94